Time;durP1;ratioP1;P1;durP2;ratioP2;P2;SDS_P1;SDS_P2;PMS_P1;PMS_P2;Temp;Humidity;BMP_temperature;BMP_pressure;BME280_temperature;BME280_humidity;BME280_pressure;Samples;Min_cycle;Max_cycle;Signal;HPM_P1;HPM_P2
2022/09/13 00:04:11;;;;;;;7.30;6.13;;;;;;;19.45;78.18;100950.94;10588654;28;20034;-71
2022/09/13 00:09:11;;;;;;;7.70;6.50;;;;;;;19.48;78.57;100950.44;10589157;28;20038;-71
2022/09/13 00:14:12;;;;;;;13.85;6.25;;;;;;;19.49;78.69;100954.84;10588575;28;20039;-71
2022/09/13 00:19:12;;;;;;;8.15;6.90;;;;;;;19.49;78.92;100959.50;10574217;28;20036;-72
2022/09/13 00:24:12;;;;;;;8.27;6.30;;;;;;;19.45;78.90;100958.38;10588691;28;20028;-71
2022/09/13 00:29:13;;;;;;;9.27;7.90;;;;;;;19.43;79.27;100955.88;10569770;28;20395;-71
2022/09/13 00:34:13;;;;;;;9.57;7.55;;;;;;;19.41;79.57;100951.72;10591178;28;20118;-71
2022/09/13 00:39:14;;;;;;;8.00;6.93;;;;;;;19.38;79.56;100946.75;10588991;28;20047;-72
2022/09/13 00:44:45;;;;;;;12.25;8.20;;;;;;;19.39;80.12;100964.88;10588318;28;20048;-72
2022/09/13 00:49:45;;;;;;;10.60;8.18;;;;;;;19.39;79.98;100967.63;10587663;28;20489;-72
2022/09/13 00:54:56;;;;;;;11.32;7.35;;;;;;;19.35;80.08;100960.97;10587316;28;20100;-71
2022/09/13 01:00:09;;;;;;;8.52;7.63;;;;;;;19.32;80.25;100956.81;10570192;28;20023;-71
2022/09/13 01:05:10;;;;;;;7.35;6.60;;;;;;;19.34;80.21;100965.66;10587636;28;20156;-72
2022/09/13 01:10:10;;;;;;;9.18;7.72;;;;;;;19.32;80.50;100950.50;10552485;28;20042;-72
2022/09/13 01:15:10;;;;;;;11.18;8.35;;;;;;;19.29;80.64;100954.59;10551626;28;20032;-71
2022/09/13 01:20:11;;;;;;;10.38;8.15;;;;;;;19.29;80.75;100952.66;10569531;28;20047;-71
2022/09/13 01:25:20;;;;;;;13.95;8.30;;;;;;;19.23;81.27;100945.44;10552299;28;20055;-71
2022/09/13 01:30:21;;;;;;;12.65;8.27;;;;;;;19.19;81.19;100948.97;10586844;28;20506;-71
2022/09/13 01:36:17;;;;;;;8.75;7.88;;;;;;;19.18;81.71;100939.09;10568899;28;20107;-72
2022/09/13 01:41:33;;;;;;;8.45;7.55;;;;;;;19.18;81.36;100939.09;10539673;28;20043;-71
2022/09/13 01:46:57;;;;;;;8.43;7.63;;;;;;;19.17;81.89;100935.47;10585450;28;20030;-72
2022/09/13 01:52:26;;;;;;;13.32;7.90;;;;;;;19.17;82.51;100927.25;10570600;28;20459;-71
2022/09/13 01:57:37;;;;;;;10.02;7.70;;;;;;;19.17;82.23;100916.25;10578284;28;20517;-72
2022/09/13 02:02:53;;;;;;;16.55;8.40;;;;;;;19.19;82.60;100927.81;10584385;28;20055;-71
2022/09/13 02:07:59;;;;;;;8.52;7.68;;;;;;;19.17;82.58;100926.41;10566220;28;20162;-71
2022/09/13 02:13:00;;;;;;;;;;;;;;;19.15;82.50;100914.88;10534413;28;20094;-71
2022/09/13 02:18:08;;;;;;;9.43;7.60;;;;;;;19.12;83.13;100926.38;10565824;28;19907;-71
2022/09/13 02:23:24;;;;;;;9.35;8.25;;;;;;;19.08;83.18;100926.03;10585624;28;20036;-71
2022/09/13 02:28:32;;;;;;;8.52;7.72;;;;;;;19.06;83.25;100933.69;10569457;28;20047;-71
2022/09/13 02:33:35;;;;;;;14.68;7.53;;;;;;;19.00;83.96;100915.50;10566595;28;20039;-72
2022/09/13 02:38:48;;;;;;;8.88;7.88;;;;;;;19.08;83.75;100926.03;10532718;28;20032;-71
2022/09/13 02:43:50;;;;;;;16.38;7.03;;;;;;;19.08;83.66;100926.03;10567429;28;20054;-71
2022/09/13 02:49:17;;;;;;;13.60;8.90;;;;;;;19.05;84.02;100919.16;10564875;28;20023;-72
2022/09/13 02:54:24;;;;;;;21.30;8.93;;;;;;;19.09;84.05;100933.19;10578563;28;20132;-71
2022/09/13 02:59:24;;;;;;;15.85;8.25;;;;;;;19.10;83.98;100943.06;10582033;28;20050;-72
2022/09/13 03:04:26;;;;;;;8.88;7.68;;;;;;;19.13;84.11;100933.50;10532076;28;20031;-72
2022/09/13 03:09:26;;;;;;;14.90;9.02;;;;;;;19.09;84.48;100930.44;10582258;28;20069;-72
2022/09/13 03:14:39;;;;;;;12.05;8.82;;;;;;;19.08;84.55;100936.16;10563353;28;20089;-71
2022/09/13 03:20:03;;;;;;;9.75;8.80;;;;;;;19.06;85.21;100928.19;10584082;28;20123;-71
2022/09/13 03:25:06;;;;;;;8.85;8.05;;;;;;;19.05;84.79;100926.56;10584052;28;20122;-71
2022/09/13 03:30:08;;;;;;;8.35;7.47;;;;;;;19.07;84.88;100942.75;10582061;28;20034;-71
2022/09/13 03:35:44;;;;;;;10.20;9.10;;;;;;;19.04;85.64;100942.16;10562914;28;20093;-72
2022/09/13 03:40:49;;;;;;;13.63;10.07;;;;;;;19.04;85.36;100944.09;10563748;28;20047;-71
2022/09/13 03:45:54;;;;;;;14.90;9.20;;;;;;;18.97;85.45;100946.19;10583294;28;20054;-72
2022/09/13 03:50:55;;;;;;;13.07;9.30;;;;;;;18.86;85.55;100944.34;10563826;28;20102;-72
2022/09/13 03:55:55;;;;;;;10.43;9.38;;;;;;;18.72;85.71;100939.22;10564931;28;20031;-72
2022/09/13 04:00:56;;;;;;;13.38;10.30;;;;;;;18.63;85.80;100943.44;10532372;28;20028;-72
2022/09/13 04:05:56;;;;;;;24.20;12.13;;;;;;;18.51;86.39;100939.97;10584811;28;20050;-71
2022/09/13 04:10:57;;;;;;;18.42;12.23;;;;;;;18.40;86.18;100941.69;10582384;28;20047;-71
2022/09/13 04:16:01;;;;;;;15.48;11.32;;;;;;;18.25;86.63;100942.28;10580260;28;20122;-69
2022/09/13 04:21:03;;;;;;;17.83;11.27;;;;;;;18.19;86.77;100943.25;10579873;28;20038;-69
2022/09/13 04:26:04;;;;;;;17.20;13.27;;;;;;;18.12;86.99;100948.91;10581437;28;20044;-70
2022/09/13 04:31:04;;;;;;;16.35;12.95;;;;;;;18.15;87.46;100958.53;10588514;28;20040;-70
2022/09/13 04:36:05;;;;;;;12.90;11.63;;;;;;;18.29;87.60;100961.81;10587682;28;20160;-72
2022/09/13 04:41:05;;;;;;;21.20;13.73;;;;;;;18.42;87.78;100961.47;10587801;28;20139;-70
2022/09/13 04:46:05;;;;;;;16.83;12.60;;;;;;;18.52;87.69;100958.06;10568742;28;20193;-69
2022/09/13 04:51:06;;;;;;;13.73;12.43;;;;;;;18.66;87.86;100956.66;10587013;28;20097;-70
2022/09/13 04:56:08;;;;;;;21.23;14.93;;;;;;;18.78;87.90;100973.06;10586244;28;20130;-69
2022/09/13 05:01:08;;;;;;;16.42;13.00;;;;;;;18.87;88.42;100970.72;10521484;28;20039;-70
2022/09/13 05:06:11;;;;;;;19.65;12.55;;;;;;;18.94;88.39;100971.38;10584507;28;20036;-72
2022/09/13 05:11:11;;;;;;;15.90;13.43;;;;;;;18.97;88.43;100971.72;10567853;28;20520;-71
2022/09/13 05:16:12;;;;;;;17.00;14.63;;;;;;;18.95;88.63;100970.28;10567906;28;20065;-71
2022/09/13 05:21:12;;;;;;;20.20;12.80;;;;;;;18.97;88.52;100979.13;10586213;28;20031;-70
2022/09/13 05:26:12;;;;;;;14.50;12.95;;;;;;;18.94;88.63;100972.22;10585567;28;20490;-71
2022/09/13 05:31:18;;;;;;;16.23;12.88;;;;;;;18.92;88.43;100981.75;10585506;28;20075;-70
2022/09/13 05:36:18;;;;;;;20.55;14.48;;;;;;;18.92;88.72;100981.75;10566998;28;20023;-70
2022/09/13 05:41:19;;;;;;;16.77;14.98;;;;;;;18.94;88.63;100988.66;10566129;28;20443;-71
2022/09/13 05:46:19;;;;;;;19.90;13.30;;;;;;;18.88;88.55;100991.59;10565922;28;20138;-70
2022/09/13 05:51:20;;;;;;;14.57;12.30;;;;;;;18.88;89.14;100997.09;10566549;28;20043;-71
2022/09/13 05:56:23;;;;;;;11.70;10.55;;;;;;;18.90;89.05;100997.66;10566015;28;20138;-70
2022/09/13 06:01:27;;;;;;;20.90;12.98;;;;;;;18.93;89.19;100987.03;10565964;28;20063;-71
2022/09/13 06:06:27;;;;;;;19.45;11.25;;;;;;;19.01;88.76;100991.25;10583177;28;20041;-71
2022/09/13 06:11:28;;;;;;;18.27;12.98;;;;;;;19.29;89.10;101001.25;10584447;28;20039;-72
2022/09/13 06:16:28;;;;;;;13.57;10.70;;;;;;;19.40;89.74;101004.97;10583463;28;20046;-71
2022/09/13 06:21:28;;;;;;;14.45;9.82;;;;;;;19.52;89.64;101008.44;10564656;28;20471;-70
2022/09/13 06:26:29;;;;;;;21.30;9.55;;;;;;;19.81;89.30;101014.59;10582979;28;20031;-70
2022/09/13 06:31:29;;;;;;;8.55;7.63;;;;;;;20.49;88.65;101001.31;10583414;28;20107;-70
2022/09/13 06:36:30;;;;;;;9.30;7.38;;;;;;;21.10;88.08;100985.31;10563870;28;20047;-71
2022/09/13 06:41:30;;;;;;;6.78;5.70;;;;;;;21.65;88.60;100996.09;10581805;28;20047;-71
2022/09/13 06:46:32;;;;;;;12.50;4.53;;;;;;;21.54;88.56;100996.06;10582259;28;20051;-71
2022/09/13 06:51:33;;;;;;;5.75;4.85;;;;;;;22.25;87.92;100989.97;10580553;28;20035;-70
2022/09/13 06:56:34;;;;;;;4.63;3.40;;;;;;;22.91;87.64;100997.44;10581452;28;20039;-70
2022/09/13 07:01:36;;;;;;;2.22;2.08;;;;;;;23.15;87.41;100994.13;10546683;28;20454;-71
2022/09/13 07:06:38;;;;;;;2.25;2.05;;;;;;;24.01;86.44;100997.69;10581703;28;20119;-71
2022/09/13 07:11:39;;;;;;;4.80;2.92;;;;;;;23.65;88.41;100995.06;10563549;28;20504;-69
2022/09/13 07:16:40;;;;;;;5.05;2.65;;;;;;;22.77;89.49;101001.03;10562992;28;20375;-71
2022/09/13 07:21:40;;;;;;;6.90;2.35;;;;;;;22.15;90.47;101006.47;10581318;28;20028;-71
2022/09/13 07:26:41;;;;;;;3.92;2.55;;;;;;;21.80;91.58;101015.47;10564042;28;20469;-71
2022/09/13 07:31:43;;;;;;;7.80;2.10;;;;;;;21.81;91.39;101014.34;10562303;28;20038;-70
2022/09/13 07:36:46;;;;;;;2.40;2.20;;;;;;;22.14;89.98;101020.50;10562081;28;20053;-70
2022/09/13 07:41:47;;;;;;;2.20;2.10;;;;;;;22.84;88.73;101013.44;10537856;28;20047;-70
2022/09/13 07:46:47;;;;;;;2.97;1.98;;;;;;;23.28;87.10;101015.63;10580531;28;20534;-70
2022/09/13 07:51:50;;;;;;;3.17;2.17;;;;;;;23.36;86.25;101019.78;10580002;28;20035;-70
2022/09/13 07:56:50;;;;;;;2.33;2.15;;;;;;;23.94;85.53;101017.38;10580234;28;20109;-70
2022/09/13 08:01:51;;;;;;;1.83;1.80;;;;;;;24.86;83.60;101024.25;10582859;28;20028;-70
2022/09/13 08:06:51;;;;;;;9.35;2.40;;;;;;;25.50;82.30;101025.84;10586320;28;20035;-70
2022/09/13 08:11:51;;;;;;;3.63;1.88;;;;;;;25.29;82.96;101030.78;10588184;28;20043;-71
2022/09/13 08:16:55;;;;;;;1.50;1.20;;;;;;;24.82;83.13;101044.22;10588933;28;20122;-70
2022/09/13 08:21:56;;;;;;;1.48;1.40;;;;;;;25.62;81.09;101028.19;10588721;28;20039;-71
2022/09/13 08:26:57;;;;;;;3.92;1.40;;;;;;;25.19;82.09;101030.91;10589069;28;20394;-71
2022/09/13 08:31:57;;;;;;;3.60;1.65;;;;;;;24.58;82.47;101029.47;10588329;28;20040;-71
2022/09/13 08:36:58;;;;;;;2.35;1.30;;;;;;;24.29;82.78;101051.50;10587100;28;20043;-71
2022/09/13 08:42:19;;;;;;;2.03;1.52;;;;;;;23.79;80.47;101056.97;10567542;28;20047;-69
2022/09/13 08:47:26;;;;;;;2.22;1.58;;;;;;;23.77;81.90;101052.84;10588014;28;20036;-71
2022/09/13 08:52:39;;;;;;;1.42;1.33;;;;;;;24.21;81.21;101058.44;10587215;28;20450;-71
2022/09/13 08:57:51;;;;;;;2.17;1.75;;;;;;;25.65;77.96;101050.63;10587031;28;20084;-71
2022/09/13 09:03:11;;;;;;;6.70;2.50;;;;;;;25.78;75.71;101056.59;10585739;28;20035;-71
2022/09/13 09:08:30;;;;;;;1.52;1.42;;;;;;;24.93;76.72;101061.59;10586936;28;20122;-71
2022/09/13 09:13:33;;;;;;;1.35;1.25;;;;;;;25.12;77.90;101053.41;10585508;28;20446;-70
2022/09/13 09:18:38;;;;;;;0.80;0.80;;;;;;;25.83;74.55;101043.50;10533802;28;20028;-70
2022/09/13 09:23:52;;;;;;;8.10;1.33;;;;;;;25.09;74.23;101053.13;10567261;28;20031;-70
2022/09/13 09:29:12;;;;;;;1.60;1.50;;;;;;;24.45;76.78;101053.09;10585475;28;20027;-70
2022/09/13 09:34:29;;;;;;;8.25;2.00;;;;;;;25.39;73.94;101044.53;10585953;28;20039;-70
2022/09/13 09:39:32;;;;;;;3.25;2.05;;;;;;;27.17;70.91;101045.97;10586167;28;20130;-70
2022/09/13 09:44:33;;;;;;;4.97;1.88;;;;;;;28.16;68.18;101047.34;10566605;28;20050;-71
2022/09/13 09:50:08;;;;;;;2.35;1.42;;;;;;;27.99;64.64;101045.22;10584305;28;20084;-71
2022/09/13 09:55:29;;;;;;;1.83;1.48;;;;;;;27.18;67.09;101046.78;10567550;28;20035;-72
2022/09/13 10:00:32;;;;;;;2.40;1.45;;;;;;;26.66;69.15;101050.41;10584311;28;20098;-70
2022/09/13 10:05:33;;;;;;;3.05;1.88;;;;;;;26.28;71.51;101048.75;10583184;28;20049;-70
2022/09/13 10:10:43;;;;;;;10.00;1.73;;;;;;;26.62;67.55;101038.25;10583838;28;20059;-70
2022/09/13 10:15:53;;;;;;;2.75;1.88;;;;;;;26.67;66.25;101035.41;10548898;28;20130;-69
2022/09/13 10:21:00;;;;;;;4.68;1.48;;;;;;;26.80;65.00;101030.19;10583582;28;20094;-70
2022/09/13 10:26:01;;;;;;;1.50;1.20;;;;;;;27.62;65.74;101014.81;10581551;28;20031;-70
2022/09/13 10:31:08;;;;;;;1.50;1.40;;;;;;;27.41;63.06;101015.22;10565678;28;20031;-71
2022/09/13 10:36:21;;;;;;;1.48;1.35;;;;;;;26.35;66.15;101015.88;10583445;28;20114;-70
2022/09/13 10:41:23;;;;;;;1.17;1.15;;;;;;;26.20;67.64;101019.72;10565561;28;20070;-71
2022/09/13 10:46:23;;;;;;;1.23;1.23;;;;;;;26.37;67.22;101019.19;10564962;28;20079;-70
2022/09/13 10:51:26;;;;;;;9.57;2.15;;;;;;;27.76;64.07;101022.03;10582861;28;20184;-71
2022/09/13 10:56:27;;;;;;;3.90;1.80;;;;;;;27.67;65.46;101028.63;10583302;28;20034;-70
2022/09/13 11:02:17;;;;;;;2.13;1.30;;;;;;;26.59;65.33;101026.94;10582654;28;20043;-71
2022/09/13 11:07:23;;;;;;;4.90;1.45;;;;;;;27.27;63.51;101020.75;10554543;28;20050;-70
2022/09/13 11:12:52;;;;;;;1.05;1.05;;;;;;;28.41;61.37;101015.31;10583377;28;20066;-70
2022/09/13 11:18:18;;;;;;;1.30;1.20;;;;;;;28.51;61.50;101014.25;10582834;28;20460;-70
2022/09/13 11:23:55;;;;;;;1.75;1.30;;;;;;;28.58;60.69;101019.38;10547952;28;20027;-69
2022/09/13 11:29:07;;;;;;;1.63;1.52;;;;;;;27.02;62.30;101016.44;10582205;28;20035;-70
2022/09/13 11:34:11;;;;;;;4.22;1.15;;;;;;;26.99;61.58;101017.06;10581879;28;20067;-71
2022/09/13 11:39:18;;;;;;;1.02;1.02;;;;;;;26.98;61.01;101025.72;10589163;28;20352;-71
2022/09/13 11:44:39;;;;;;;1.70;1.60;;;;;;;28.12;57.31;101018.47;10571718;28;20040;-70
2022/09/13 11:49:58;;;;;;;1.85;1.48;;;;;;;29.03;56.16;101014.63;10590327;28;20036;-69
2022/09/13 11:55:07;;;;;;;10.02;1.50;;;;;;;28.15;49.65;101019.81;10589656;28;20032;-70
2022/09/13 12:00:24;;;;;;;4.55;1.40;;;;;;;28.14;54.92;101018.16;10572804;28;20035;-70
2022/09/13 12:05:50;;;;;;;1.58;1.38;;;;;;;29.25;55.04;101026.88;10589377;28;20085;-70
2022/09/13 12:11:03;;;;;;;1.27;1.23;;;;;;;29.93;54.31;101011.56;10564160;28;20066;-72
2022/09/13 12:16:05;;;;;;;2.22;1.50;;;;;;;29.95;52.96;101011.22;10553734;28;20435;-70
2022/09/13 12:21:11;;;;;;;2.55;1.33;;;;;;;30.06;52.85;101007.81;10570565;28;20070;-70
2022/09/13 12:26:19;;;;;;;1.43;1.33;;;;;;;29.62;51.30;101011.66;10570595;28;20027;-70
2022/09/13 12:31:22;;;;;;;1.58;1.35;;;;;;;29.24;52.60;101019.69;10570987;28;20028;-71
2022/09/13 12:36:39;;;;;;;6.15;1.67;;;;;;;28.69;49.99;101012.44;10587400;28;20031;-70
2022/09/13 12:41:42;;;;;;;1.60;1.17;;;;;;;28.90;50.26;101009.94;10552916;28;20368;-70
2022/09/13 12:46:58;;;;;;;1.92;1.38;;;;;;;28.90;50.41;100987.63;10587549;28;20053;-69
2022/09/13 12:52:03;;;;;;;;;;;;;;;29.28;50.76;100999.19;10569560;28;20420;-70
2022/09/13 12:57:07;;;;;;;11.60;2.38;;;;;;;29.61;51.37;100996.03;10570319;28;19908;-70
2022/09/13 13:02:26;;;;;;;2.65;1.77;;;;;;;28.87;50.36;100997.44;10588200;28;20139;-69
2022/09/13 13:07:26;;;;;;;0.68;0.68;;;;;;;28.37;50.08;101002.31;10588341;28;20124;-69
2022/09/13 13:12:32;;;;;;;0.93;0.85;;;;;;;28.96;51.74;101014.25;10570922;28;20067;-69
2022/09/13 13:17:39;;;;;;;1.38;1.15;;;;;;;28.48;52.52;101010.13;10572402;28;20118;-69
2022/09/13 13:22:43;;;;;;;7.53;1.60;;;;;;;28.84;51.05;101006.44;10594341;28;20031;-69
2022/09/13 13:27:44;;;;;;;1.48;1.38;;;;;;;28.21;50.93;100994.31;10596200;28;20027;-69
2022/09/13 13:33:05;;;;;;;2.28;1.42;;;;;;;28.17;51.50;100998.84;10591289;28;20062;-70
2022/09/13 13:38:14;;;;;;;1.10;1.10;;;;;;;26.81;51.48;101009.63;10568688;28;20435;-69
2022/09/13 13:43:24;;;;;;;2.17;1.05;;;;;;;26.56;53.19;101024.75;10586081;28;20109;-70
2022/09/13 13:48:51;;;;;;;2.00;1.17;;;;;;;26.69;54.03;101012.88;10569348;28;20062;-70
2022/09/13 13:53:57;;;;;;;1.75;1.30;;;;;;;26.78;53.43;101008.28;10582491;28;20055;-70
2022/09/13 13:59:30;;;;;;;1.10;1.00;;;;;;;26.78;53.85;101007.47;10566064;28;20044;-71
2022/09/13 14:05:05;;;;;;;2.97;1.70;;;;;;;27.03;53.60;101001.44;10548123;28;20035;-70
2022/09/13 14:10:22;;;;;;;4.57;1.50;;;;;;;26.75;53.54;101008.06;10569222;28;20061;-69
2022/09/13 14:15:30;;;;;;;1.17;1.08;;;;;;;26.21;54.93;101002.75;10568052;28;20054;-70
2022/09/13 14:20:30;;;;;;;4.05;1.33;;;;;;;26.01;54.54;101011.38;10565685;28;20074;-71
2022/09/13 14:25:32;;;;;;;5.90;1.55;;;;;;;26.33;55.10;101007.84;10564991;28;20044;-70
2022/09/13 14:30:36;;;;;;;2.03;1.65;;;;;;;26.09;54.45;100996.81;10582912;28;20046;-72
2022/09/13 14:35:38;;;;;;;2.97;1.70;;;;;;;25.77;55.62;101010.56;10531479;28;20027;-71
2022/09/13 14:40:38;;;;;;;1.40;1.30;;;;;;;25.43;56.38;101023.44;10563844;28;20130;-70
2022/09/13 14:45:38;;;;;;;1.48;1.45;;;;;;;25.03;56.50;101031.00;10582855;28;20055;-69
2022/09/13 14:50:47;;;;;;;2.15;1.80;;;;;;;24.44;57.04;101022.91;10562959;28;20074;-70
2022/09/13 14:55:51;;;;;;;1.17;1.08;;;;;;;23.70;57.26;101014.41;10563754;28;20037;-70
2022/09/13 15:00:58;;;;;;;2.80;1.50;;;;;;;23.16;58.01;101015.09;10564133;28;20053;-70
2022/09/13 15:06:00;;;;;;;4.38;1.77;;;;;;;22.78;57.96;101014.53;10581691;28;20463;-70
2022/09/13 15:11:02;;;;;;;1.83;1.30;;;;;;;22.38;57.87;101010.66;10562994;28;20035;-71
2022/09/13 15:16:23;;;;;;;6.18;1.30;;;;;;;22.21;57.37;101010.09;10581632;28;20047;-70
2022/09/13 15:21:29;;;;;;;3.03;1.48;;;;;;;22.15;57.33;101009.22;10580542;28;20031;-70
2022/09/13 15:26:29;;;;;;;2.65;1.55;;;;;;;22.12;57.33;101017.22;10564575;28;20121;-70
2022/09/13 15:31:31;;;;;;;4.30;1.88;;;;;;;21.84;57.80;101005.53;10581365;28;20028;-70
2022/09/13 15:36:32;;;;;;;5.00;1.55;;;;;;;21.75;57.87;100998.88;10562690;28;20456;-70
2022/09/13 15:41:37;;;;;;;1.48;1.40;;;;;;;21.56;58.34;100996.59;10563005;28;20047;-70
2022/09/13 15:46:47;;;;;;;7.72;2.03;;;;;;;21.52;58.39;100997.41;10581084;28;20065;-70
2022/09/13 15:51:53;;;;;;;8.88;1.48;;;;;;;21.48;58.21;101004.56;10548373;28;20100;-70
2022/09/13 15:56:53;;;;;;;3.17;1.15;;;;;;;21.31;58.37;101002.81;10562483;28;20023;-71
2022/09/13 16:01:54;;;;;;;5.35;1.55;;;;;;;21.13;58.67;100990.28;10562384;28;20078;-72
2022/09/13 16:06:55;;;;;;;2.85;1.40;;;;;;;20.96;58.81;100988.78;10581239;28;20412;-70
2022/09/13 16:11:55;;;;;;;7.45;1.33;;;;;;;20.61;59.61;100965.41;10580664;28;20043;-71
2022/09/13 16:16:56;;;;;;;3.40;1.25;;;;;;;20.36;60.26;100971.50;10563164;28;20416;-72
2022/09/13 16:21:56;;;;;;;4.28;1.40;;;;;;;20.12;60.98;100963.56;10582363;28;20096;-71
2022/09/13 16:26:59;;;;;;;1.50;1.20;;;;;;;20.04;61.07;100964.03;10588188;28;20643;-71
2022/09/13 16:32:00;;;;;;;1.80;1.13;;;;;;;20.00;61.00;100960.13;10569794;28;20047;-70
2022/09/13 16:37:00;;;;;;;1.38;0.80;;;;;;;19.93;61.19;100965.84;10587681;28;20463;-71
2022/09/13 16:42:01;;;;;;;3.53;1.33;;;;;;;19.85;61.83;100960.00;10587350;28;20043;-71
2022/09/13 16:47:01;;;;;;;3.17;1.95;;;;;;;19.81;61.96;100961.56;10568993;28;20088;-71
2022/09/13 16:52:02;;;;;;;2.60;1.55;;;;;;;19.61;63.85;100951.97;10586960;28;20378;-71
2022/09/13 16:57:03;;;;;;;3.33;1.85;;;;;;;19.43;63.84;100949.53;10585967;28;20034;-71
2022/09/13 17:02:04;;;;;;;1.50;1.02;;;;;;;19.29;64.30;100958.16;10553057;28;20469;-71
2022/09/13 17:07:06;;;;;;;2.08;1.30;;;;;;;19.22;63.75;100954.78;10551426;28;20122;-71
2022/09/13 17:12:07;;;;;;;2.80;1.73;;;;;;;19.12;66.60;100949.16;10569032;28;20039;-70
2022/09/13 17:17:08;;;;;;;2.40;1.30;;;;;;;19.11;64.55;100935.66;10585709;28;20051;-71
2022/09/13 17:22:09;;;;;;;7.05;1.73;;;;;;;18.98;65.48;100942.34;10586195;28;20348;-70
2022/09/13 17:27:10;;;;;;;2.63;1.38;;;;;;;18.92;64.73;100941.47;10585278;28;20044;-70
2022/09/13 17:32:10;;;;;;;1.58;1.48;;;;;;;18.90;64.62;100940.06;10585146;28;20036;-71
2022/09/13 17:37:11;;;;;;;1.90;1.50;;;;;;;18.83;65.25;100936.66;10566264;28;20031;-71
2022/09/13 17:42:11;;;;;;;3.05;1.60;;;;;;;18.76;65.72;100937.66;10568442;28;20047;-72
2022/09/13 17:47:11;;;;;;;8.20;1.75;;;;;;;18.79;66.16;100939.03;10584800;28;20459;-71
2022/09/13 17:52:12;;;;;;;6.78;1.55;;;;;;;18.77;67.41;100938.47;10585320;28;20039;-71
2022/09/13 17:57:14;;;;;;;2.20;1.15;;;;;;;18.71;67.37;100948.50;10584530;28;20035;-70
2022/09/13 18:02:14;;;;;;;3.13;1.33;;;;;;;18.57;70.25;100937.06;10584843;28;20023;-71
2022/09/13 18:07:15;;;;;;;3.97;1.40;;;;;;;18.51;69.95;100931.75;10584987;28;20036;-71
2022/09/13 18:12:15;;;;;;;2.60;2.40;;;;;;;18.51;68.65;100931.75;10585297;28;20447;-70
2022/09/13 18:17:16;;;;;;;5.45;1.65;;;;;;;18.48;68.79;100943.22;10583824;28;20387;-71
2022/09/13 18:22:16;;;;;;;5.80;2.05;;;;;;;18.42;68.99;100941.47;10565355;28;20027;-70
2022/09/13 18:27:17;;;;;;;2.75;2.05;;;;;;;18.34;70.37;100943.50;10583360;28;20035;-71
2022/09/13 18:32:17;;;;;;;10.82;2.25;;;;;;;18.29;70.75;100948.91;10581848;28;20118;-71
2022/09/13 18:37:17;;;;;;;4.97;2.55;;;;;;;18.26;70.78;100957.63;10582345;28;20035;-71
2022/09/13 18:42:18;;;;;;;4.05;1.52;;;;;;;18.22;70.65;100947.41;10583179;28;20046;-70
2022/09/13 18:47:18;;;;;;;3.67;1.92;;;;;;;18.16;71.76;100949.25;10580828;28;20540;-71
2022/09/13 18:52:19;;;;;;;6.15;4.18;;;;;;;18.15;69.82;100935.78;10582482;28;20114;-71
2022/09/13 18:57:20;;;;;;;3.67;1.67;;;;;;;18.08;72.85;100944.97;10564004;28;20035;-71
2022/09/13 19:02:23;;;;;;;5.40;1.95;;;;;;;18.08;70.75;100952.38;10563846;28;20042;-71
2022/09/13 19:07:24;;;;;;;7.10;2.03;;;;;;;18.03;71.52;100955.03;10581904;28;20036;-70
2022/09/13 19:12:25;;;;;;;4.32;2.15;;;;;;;18.01;70.97;100959.91;10581854;28;20093;-71
2022/09/13 19:17:25;;;;;;;3.65;3.30;;;;;;;17.96;71.78;100970.78;10564996;28;20031;-71
2022/09/13 19:22:26;;;;;;;2.05;1.92;;;;;;;17.95;71.44;100978.16;10580820;28;20039;-71
2022/09/13 19:27:26;;;;;;;6.68;2.55;;;;;;;17.92;72.06;100975.09;10581495;28;20042;-71
2022/09/13 19:32:27;;;;;;;8.07;2.53;;;;;;;17.86;72.62;100983.19;10581573;28;20043;-71
2022/09/13 19:37:27;;;;;;;4.10;1.65;;;;;;;17.82;73.11;100979.28;10581562;28;20104;-71
2022/09/13 19:42:28;;;;;;;5.03;1.63;;;;;;;17.80;72.80;100977.84;10581291;28;20428;-72
2022/09/13 19:47:28;;;;;;;3.53;2.35;;;;;;;17.70;73.40;100975.72;10581314;28;20043;-72
2022/09/13 19:52:28;;;;;;;5.70;2.33;;;;;;;17.59;73.51;100980.16;10580633;28;20031;-71
2022/09/13 19:57:29;;;;;;;7.38;2.20;;;;;;;17.55;73.58;100989.09;10583860;28;20528;-71
2022/09/13 20:02:30;;;;;;;4.18;2.40;;;;;;;17.50;73.38;100986.25;10589137;28;20088;-70
2022/09/13 20:07:30;;;;;;;11.25;2.40;;;;;;;17.47;73.48;100989.47;10571800;28;20036;-71
2022/09/13 20:12:30;;;;;;;7.38;1.80;;;;;;;17.34;75.29;100960.47;10588855;28;20387;-71
2022/09/13 20:17:31;;;;;;;3.75;2.20;;;;;;;17.34;75.29;100974.97;10570397;28;20035;-70
2022/09/13 20:22:31;;;;;;;6.88;1.92;;;;;;;17.17;77.67;100963.13;10589155;28;20072;-72
2022/09/13 20:27:31;;;;;;;4.43;1.65;;;;;;;17.18;77.49;100975.72;10589501;28;20043;-71
2022/09/13 20:32:32;;;;;;;2.25;2.05;;;;;;;17.09;76.20;100966.19;10587398;28;20506;-71
2022/09/13 20:37:32;;;;;;;5.30;1.55;;;;;;;17.07;76.97;100962.84;10554020;28;20032;-72
2022/09/13 20:42:33;;;;;;;4.18;1.67;;;;;;;17.04;77.00;100966.94;10588110;28;20043;-71
2022/09/13 20:47:35;;;;;;;5.10;1.70;;;;;;;16.98;77.60;100967.88;10587072;28;20435;-70
2022/09/13 20:52:35;;;;;;;5.22;2.03;;;;;;;16.91;77.55;100975.34;10587256;28;20031;-72
2022/09/13 20:57:35;;;;;;;3.35;2.10;;;;;;;16.85;77.20;100965.38;10587733;28;20052;-71
2022/09/13 21:02:36;;;;;;;3.40;1.83;;;;;;;16.76;78.93;100956.69;10587418;28;20028;-71
2022/09/13 21:12:55;;;;;;;8.95;1.85;;;;;;;16.67;79.81;100949.88;10586206;28;20044;-70
2022/09/13 21:17:56;;;;;;;5.35;2.20;;;;;;;16.62;81.35;100950.56;10568888;28;20453;-71
2022/09/13 21:22:56;;;;;;;6.20;2.58;;;;;;;16.57;80.11;100947.72;10569103;28;20289;-71
2022/09/13 21:27:57;;;;;;;2.72;1.98;;;;;;;16.61;79.87;100937.97;10568642;28;20378;-71
2022/09/13 21:32:57;;;;;;;5.28;1.48;;;;;;;16.58;79.61;100943.09;10586755;28;20035;-71
2022/09/13 21:37:58;;;;;;;2.35;1.75;;;;;;;16.54;78.81;100950.09;10585774;28;20074;-71
2022/09/13 21:42:59;;;;;;;2.90;2.08;;;;;;;16.49;78.99;100954.34;10584891;28;20043;-71
2022/09/13 21:47:59;;;;;;;3.30;1.83;;;;;;;16.50;78.51;100945.13;10585267;28;20097;-70
2022/09/13 21:53:00;;;;;;;1.73;1.63;;;;;;;16.47;78.45;100940.13;10585169;28;20040;-71
2022/09/13 21:58:02;;;;;;;2.33;2.10;;;;;;;16.43;79.92;100941.66;10585582;28;20092;-71
2022/09/13 22:03:03;;;;;;;9.07;1.95;;;;;;;16.40;78.49;100946.75;10585096;28;20055;-70
2022/09/13 22:08:03;;;;;;;1.98;1.88;;;;;;;16.43;78.31;100943.53;10565348;28;20036;-70
2022/09/13 22:13:04;;;;;;;2.20;1.67;;;;;;;16.46;78.88;100941.19;10565942;28;20035;-70
2022/09/13 22:18:04;;;;;;;7.53;2.58;;;;;;;16.47;78.34;100950.22;10584676;28;20039;-71
2022/09/13 22:23:04;;;;;;;3.00;2.50;;;;;;;16.48;78.37;100940.94;10583827;28;20578;-71
2022/09/13 22:28:05;;;;;;;5.07;1.75;;;;;;;16.51;77.66;100933.09;10565860;28;20127;-70
2022/09/13 22:33:05;;;;;;;4.22;2.05;;;;;;;16.55;77.44;100924.44;10583418;28;20116;-70
2022/09/13 22:38:06;;;;;;;7.88;1.73;;;;;;;16.48;78.44;100925.38;10583052;28;20032;-70
2022/09/13 22:43:06;;;;;;;2.28;1.55;;;;;;;16.41;78.32;100930.13;10583617;28;20109;-73
2022/09/13 22:48:06;;;;;;;6.70;1.65;;;;;;;16.33;78.42;100927.72;10565697;28;20035;-72
2022/09/13 22:53:07;;;;;;;2.85;2.58;;;;;;;16.27;78.01;100917.72;10582790;28;20028;-71
2022/09/13 22:58:07;;;;;;;5.32;1.73;;;;;;;16.32;78.04;100917.03;10582612;28;20043;-71
2022/09/13 23:03:07;;;;;;;2.17;1.55;;;;;;;16.30;77.74;100922.72;10582320;28;20402;-71
2022/09/13 23:08:08;;;;;;;9.18;2.10;;;;;;;16.27;78.18;100915.00;10565604;28;20115;-70
2022/09/13 23:13:09;;;;;;;2.55;1.45;;;;;;;16.23;78.24;100898.25;10563293;28;20032;-71
2022/09/13 23:18:09;;;;;;;5.38;2.00;;;;;;;16.28;78.19;100903.00;10582176;28;20036;-71
2022/09/13 23:23:10;;;;;;;12.55;2.78;;;;;;;16.22;78.54;100899.31;10581750;28;20488;-71